Time;durP1;ratioP1;P1;durP2;ratioP2;P2;SDS_P1;SDS_P2;PMS_P1;PMS_P2;Temp;Humidity;BMP_temperature;BMP_pressure;BME280_temperature;BME280_humidity;BME280_pressure;Samples;Min_cycle;Max_cycle;Signal;HPM_P1;HPM_P2
2021/10/08 00:01:14;;;;;;;2.10;1.17;;;16.20;54.80;;;;;;6198834;28;20038;-79
2021/10/08 00:04:15;;;;;;;2.78;1.33;;;16.20;54.90;;;;;;6196648;28;20038;-78
2021/10/08 00:07:17;;;;;;;3.53;1.42;;;16.20;54.90;;;;;;6183013;28;20034;-78
2021/10/08 00:10:18;;;;;;;2.13;1.10;;;16.20;55.00;;;;;;6199550;28;20053;-78
2021/10/08 00:13:19;;;;;;;4.03;1.10;;;16.10;55.00;;;;;;6196117;28;20054;-79
2021/10/08 00:16:20;;;;;;;1.58;0.90;;;16.10;55.10;;;;;;6189138;28;20045;-78
2021/10/08 00:19:21;;;;;;;12.10;1.80;;;16.10;55.30;;;;;;6199181;28;20030;-78
2021/10/08 00:22:22;;;;;;;2.05;1.20;;;16.10;55.40;;;;;;6179331;28;20042;-79
2021/10/08 00:25:23;;;;;;;3.78;1.42;;;16.10;55.60;;;;;;6199230;28;20054;-78
2021/10/08 00:28:24;;;;;;;5.82;1.17;;;16.10;55.60;;;;;;6184126;28;20367;-78
2021/10/08 00:31:25;;;;;;;4.32;1.33;;;16.10;55.70;;;;;;6184375;28;20053;-79
2021/10/08 00:34:26;;;;;;;3.90;1.65;;;16.10;55.70;;;;;;6200036;28;20053;-79
2021/10/08 00:37:27;;;;;;;3.70;1.55;;;16.00;55.80;;;;;;6196361;28;20374;-79
2021/10/08 00:40:28;;;;;;;4.15;1.38;;;16.00;55.90;;;;;;6193212;28;20038;-79
2021/10/08 00:43:29;;;;;;;1.52;0.90;;;16.00;55.90;;;;;;6215404;28;20046;-78
2021/10/08 00:46:30;;;;;;;2.92;1.10;;;16.00;56.10;;;;;;6221857;28;20501;-78
2021/10/08 00:49:31;;;;;;;3.53;1.48;;;16.00;56.20;;;;;;6221036;28;20041;-78
2021/10/08 00:52:32;;;;;;;4.80;1.40;;;15.90;56.40;;;;;;6205273;28;20474;-79
2021/10/08 00:55:41;;;;;;;2.50;1.02;;;15.90;56.60;;;;;;6199810;28;20511;-78
2021/10/08 00:58:43;;;;;;;3.70;1.40;;;15.80;56.70;;;;;;6215861;28;20062;-79
2021/10/08 01:01:44;;;;;;;1.85;1.05;;;15.90;56.90;;;;;;6204774;28;20042;-79
2021/10/08 01:04:48;;;;;;;1.90;1.17;;;15.80;57.00;;;;;;6218596;28;20108;-79
2021/10/08 01:07:49;;;;;;;5.32;1.70;;;15.80;57.20;;;;;;6209875;28;20057;-80
2021/10/08 01:10:52;;;;;;;2.75;1.02;;;15.70;57.40;;;;;;6207007;28;20120;-78
2021/10/08 01:13:54;;;;;;;2.00;1.13;;;15.70;57.60;;;;;;6197835;28;20034;-78
2021/10/08 01:16:59;;;;;;;1.65;1.23;;;15.70;57.70;;;;;;6197299;28;20048;-78
2021/10/08 01:20:06;;;;;;;3.63;1.52;;;15.70;57.80;;;;;;6223031;28;20095;-78
2021/10/08 01:23:11;;;;;;;2.58;1.10;;;15.60;57.80;;;;;;6210893;28;20038;-79
2021/10/08 01:26:19;;;;;;;3.10;1.50;;;15.60;57.80;;;;;;6171688;28;20066;-79
2021/10/08 01:29:20;;;;;;;4.10;0.82;;;15.60;57.70;;;;;;6173667;28;20039;-79
2021/10/08 01:32:23;;;;;;;9.90;1.45;;;15.60;57.80;;;;;;6189579;28;20472;-79
2021/10/08 01:35:25;;;;;;;1.60;1.05;;;15.60;58.00;;;;;;6212624;28;20064;-79
2021/10/08 01:38:30;;;;;;;3.00;1.40;;;15.60;58.80;;;;;;6216543;28;20034;-80
2021/10/08 01:41:32;;;;;;;1.65;1.05;;;15.50;58.30;;;;;;6184776;28;20045;-79
2021/10/08 01:44:33;;;;;;;2.30;1.38;;;15.50;58.50;;;;;;6197081;28;20455;-79
2021/10/08 01:47:36;;;;;;;2.35;1.35;;;15.40;58.70;;;;;;6209732;28;20474;-79
2021/10/08 01:50:38;;;;;;;3.90;1.33;;;16.40;59.40;;;;;;6225463;28;20154;-79
2021/10/08 01:53:39;;;;;;;1.67;0.95;;;15.30;59.10;;;;;;6218264;28;20031;-80
2021/10/08 01:56:44;;;;;;;4.18;1.42;;;15.30;59.20;;;;;;6225548;28;20442;-79
2021/10/08 01:59:45;;;;;;;1.67;1.23;;;15.30;59.40;;;;;;6225374;28;20038;-79
2021/10/08 02:02:48;;;;;;;3.17;1.20;;;15.30;59.40;;;;;;6216821;28;20401;-79
2021/10/08 02:05:55;;;;;;;3.45;1.52;;;15.20;59.40;;;;;;6201984;28;20125;-79
2021/10/08 02:08:58;;;;;;;5.05;1.77;;;15.20;59.30;;;;;;6213957;28;20366;-80
2021/10/08 02:12:03;;;;;;;2.30;1.30;;;15.20;59.30;;;;;;6225813;28;20582;-78
2021/10/08 02:15:07;;;;;;;2.38;1.33;;;15.20;59.20;;;;;;6216792;28;20482;-78
2021/10/08 02:18:08;;;;;;;3.22;1.48;;;15.20;59.10;;;;;;6226412;28;20042;-78
2021/10/08 02:21:09;;;;;;;1.55;0.90;;;15.20;59.10;;;;;;6226261;28;20352;-78
2021/10/08 02:24:13;;;;;;;5.70;1.10;;;15.20;59.10;;;;;;6189122;28;20112;-78
2021/10/08 02:27:19;;;;;;;2.00;0.75;;;15.20;59.10;;;;;;6201990;28;20057;-78
2021/10/08 02:30:20;;;;;;;3.92;1.38;;;15.10;59.00;;;;;;6203855;28;20125;-78
2021/10/08 02:33:23;;;;;;;2.25;1.13;;;15.10;58.90;;;;;;6186454;28;20522;-79
2021/10/08 02:36:24;;;;;;;2.13;1.52;;;15.10;58.90;;;;;;6188928;28;20435;-78
2021/10/08 02:39:25;;;;;;;3.97;1.55;;;15.10;59.00;;;;;;6212348;28;20038;-79
2021/10/08 02:42:27;;;;;;;1.63;1.25;;;15.10;59.00;;;;;;6202025;28;20034;-78
2021/10/08 02:45:29;;;;;;;2.90;1.20;;;15.00;59.00;;;;;;6215185;28;20578;-79
2021/10/08 02:48:30;;;;;;;10.68;1.85;;;15.00;59.20;;;;;;6221782;28;20034;-78
2021/10/08 02:51:36;;;;;;;3.90;1.80;;;15.00;59.20;;;;;;6225354;28;20364;-78
2021/10/08 02:54:37;;;;;;;3.20;1.50;;;15.10;59.30;;;;;;6210110;28;20379;-78
2021/10/08 02:57:39;;;;;;;2.47;1.23;;;14.90;59.30;;;;;;6201519;28;20042;-78
2021/10/08 03:00:41;;;;;;;1.73;1.30;;;14.90;59.30;;;;;;6202366;28;20034;-78
2021/10/08 03:03:42;;;;;;;2.05;1.30;;;14.90;59.30;;;;;;6197371;28;20030;-78
2021/10/08 03:06:44;;;;;;;6.20;1.75;;;14.80;59.40;;;;;;6209210;28;20502;-78
2021/10/08 03:09:46;;;;;;;3.70;1.15;;;14.80;59.50;;;;;;6225028;28;20125;-79
2021/10/08 03:12:48;;;;;;;8.82;1.40;;;14.80;59.70;;;;;;6208532;28;20030;-79
2021/10/08 03:15:50;;;;;;;3.15;1.40;;;14.70;59.70;;;;;;6208666;28;20096;-79
2021/10/08 03:18:51;;;;;;;2.00;1.50;;;14.70;59.80;;;;;;6224612;28;20033;-78
2021/10/08 03:21:52;;;;;;;11.70;2.20;;;14.70;59.80;;;;;;6225034;28;20033;-80
2021/10/08 03:24:53;;;;;;;4.45;1.98;;;14.70;59.80;;;;;;6208887;28;20118;-78
2021/10/08 03:27:56;;;;;;;3.58;1.60;;;14.70;59.80;;;;;;6186753;28;20105;-79
2021/10/08 03:30:57;;;;;;;11.63;1.75;;;14.70;59.80;;;;;;6213818;28;20038;-80
2021/10/08 03:33:59;;;;;;;4.13;1.63;;;14.60;59.80;;;;;;6217411;28;20038;-79
2021/10/08 03:37:07;;;;;;;8.73;1.85;;;14.60;59.90;;;;;;6216658;28;20042;-78
2021/10/08 03:40:11;;;;;;;2.92;1.65;;;14.60;59.90;;;;;;6174257;28;20141;-79
2021/10/08 03:43:13;;;;;;;5.40;2.17;;;14.60;59.90;;;;;;6178944;28;20096;-79
2021/10/08 03:46:15;;;;;;;2.47;1.50;;;14.60;59.90;;;;;;6201230;28;20060;-79
2021/10/08 03:49:16;;;;;;;2.53;1.45;;;14.60;60.00;;;;;;6207962;28;20030;-78
2021/10/08 03:52:18;;;;;;;5.85;1.70;;;14.60;60.00;;;;;;6209182;28;20066;-78
2021/10/08 03:55:19;;;;;;;4.57;1.77;;;14.50;60.10;;;;;;6188522;28;20045;-79
2021/10/08 03:58:20;;;;;;;2.75;1.35;;;14.50;60.10;;;;;;6202701;28;20375;-79
2021/10/08 04:01:21;;;;;;;3.83;1.95;;;14.50;60.10;;;;;;6185077;28;20057;-78
2021/10/08 04:04:22;;;;;;;2.78;1.50;;;14.50;60.10;;;;;;6200755;28;20057;-78
2021/10/08 04:07:23;;;;;;;2.20;1.42;;;14.50;60.10;;;;;;6199563;28;20042;-78
2021/10/08 04:10:25;;;;;;;4.57;1.70;;;14.40;60.20;;;;;;6223052;28;20041;-78
2021/10/08 04:13:26;;;;;;;4.88;2.00;;;14.40;60.20;;;;;;6223897;28;20060;-78
2021/10/08 04:16:28;;;;;;;5.72;2.10;;;14.40;60.30;;;;;;6223327;28;20034;-78
2021/10/08 04:19:31;;;;;;;3.33;1.88;;;14.30;60.50;;;;;;6223503;28;20033;-78
2021/10/08 04:22:33;;;;;;;4.03;1.73;;;14.30;60.70;;;;;;6223351;28;20375;-79
2021/10/08 04:25:35;;;;;;;3.83;1.85;;;14.20;60.80;;;;;;6185754;28;20034;-79
2021/10/08 04:28:37;;;;;;;5.30;1.73;;;14.20;61.00;;;;;;6173151;28;20132;-79
2021/10/08 04:31:39;;;;;;;3.03;1.73;;;14.20;61.00;;;;;;6181508;28;20038;-79
2021/10/08 04:34:43;;;;;;;4.30;1.90;;;14.30;61.10;;;;;;6199862;28;20049;-79
2021/10/08 04:37:45;;;;;;;5.97;2.05;;;14.30;61.20;;;;;;6174817;28;20080;-79
2021/10/08 04:40:46;;;;;;;6.53;1.90;;;14.30;61.20;;;;;;6222590;28;20425;-79
2021/10/08 04:43:48;;;;;;;7.05;2.00;;;14.30;61.10;;;;;;6223321;28;20378;-79
2021/10/08 04:46:50;;;;;;;4.38;1.70;;;14.30;61.00;;;;;;6222911;28;20034;-79
2021/10/08 04:49:52;;;;;;;5.32;1.48;;;14.30;60.90;;;;;;6214906;28;20034;-79
2021/10/08 04:52:53;;;;;;;1.88;1.50;;;14.30;60.80;;;;;;6218306;28;20041;-79
2021/10/08 04:55:55;;;;;;;7.53;2.00;;;14.30;60.80;;;;;;6199342;28;20045;-79
2021/10/08 04:58:57;;;;;;;5.22;1.80;;;14.30;60.80;;;;;;6183422;28;20109;-79
2021/10/08 05:01:58;;;;;;;5.70;2.08;;;14.30;60.70;;;;;;6188565;28;20036;-79
2021/10/08 05:05:00;;;;;;;5.40;1.88;;;14.30;60.60;;;;;;6199444;28;20030;-79
2021/10/08 05:08:01;;;;;;;1.50;1.20;;;14.30;60.50;;;;;;6210414;28;20113;-80
2021/10/08 05:11:02;;;;;;;2.90;1.15;;;14.30;60.40;;;;;;6223986;28;20061;-78
2021/10/08 05:14:04;;;;;;;3.40;1.38;;;14.20;60.30;;;;;;6209754;28;20030;-81
2021/10/08 05:17:10;;;;;;;10.70;1.67;;;14.30;60.30;;;;;;6244253;28;20038;-79
2021/10/08 05:20:11;;;;;;;4.50;1.50;;;14.20;60.30;;;;;;6221542;28;20050;-79
2021/10/08 05:23:19;;;;;;;2.88;1.27;;;14.20;60.30;;;;;;6226465;28;20042;-81
2021/10/08 05:26:20;;;;;;;7.97;1.33;;;14.10;60.30;;;;;;6194206;28;20100;-79
2021/10/08 05:29:21;;;;;;;2.33;1.20;;;14.10;60.40;;;;;;6214218;28;20057;-80
2021/10/08 05:32:22;;;;;;;4.25;1.45;;;14.10;60.50;;;;;;6201558;28;20057;-79
2021/10/08 05:35:23;;;;;;;1.98;1.38;;;14.00;60.60;;;;;;6191623;28;20030;-79
2021/10/08 05:38:25;;;;;;;4.57;1.80;;;14.00;60.70;;;;;;6224641;28;20030;-81
2021/10/08 05:41:26;;;;;;;3.17;1.55;;;14.00;60.80;;;;;;6207462;28;20030;-80
2021/10/08 05:44:27;;;;;;;3.42;1.63;;;14.00;60.80;;;;;;6222791;28;20375;-78
2021/10/08 05:47:28;;;;;;;3.83;1.50;;;14.00;60.80;;;;;;6205417;28;20113;-78
2021/10/08 05:50:29;;;;;;;5.15;1.83;;;14.10;60.80;;;;;;6222724;28;20045;-79
2021/10/08 05:53:30;;;;;;;10.38;1.60;;;14.10;60.80;;;;;;6204602;28;20440;-78
2021/10/08 05:56:31;;;;;;;3.83;1.83;;;14.10;60.70;;;;;;6206123;28;20045;-79
2021/10/08 05:59:32;;;;;;;3.38;1.75;;;14.20;60.60;;;;;;6202882;28;20070;-78
2021/10/08 06:02:34;;;;;;;2.08;1.30;;;14.20;60.40;;;;;;6177026;28;20098;-79
2021/10/08 06:05:37;;;;;;;3.08;1.67;;;14.20;60.30;;;;;;6230062;28;20029;-79
2021/10/08 06:08:39;;;;;;;1.83;1.35;;;14.30;60.20;;;;;;6227447;28;20034;-79
2021/10/08 06:11:41;;;;;;;3.08;1.50;;;14.30;60.10;;;;;;6236328;28;20052;-79
2021/10/08 06:14:42;;;;;;;2.25;1.33;;;14.30;60.80;;;;;;6243863;28;20038;-79
2021/10/08 06:17:45;;;;;;;3.78;1.75;;;14.30;59.90;;;;;;6236965;28;20104;-79
2021/10/08 06:20:45;;;;;;;2.25;1.25;;;14.30;59.80;;;;;;6228969;28;20121;-79
2021/10/08 06:23:50;;;;;;;2.22;1.10;;;14.40;59.80;;;;;;6219198;28;20034;-79
2021/10/08 06:26:53;;;;;;;2.38;1.40;;;14.40;59.60;;;;;;6203244;28;20026;-79
2021/10/08 06:29:54;;;;;;;1.10;1.00;;;14.40;59.50;;;;;;6208313;28;20038;-79
2021/10/08 06:32:55;;;;;;;2.92;1.80;;;14.40;59.60;;;;;;6207432;28;20101;-78
2021/10/08 06:35:56;;;;;;;6.82;2.25;;;14.50;59.70;;;;;;6201971;28;20435;-78
2021/10/08 06:38:58;;;;;;;1.90;1.45;;;14.50;59.60;;;;;;6185636;28;20046;-80
2021/10/08 06:41:59;;;;;;;2.72;1.73;;;14.60;59.60;;;;;;6201616;28;20459;-79
2021/10/08 06:45:06;;;;;;;2.70;1.55;;;14.60;59.50;;;;;;6184203;28;20066;-79
2021/10/08 06:48:07;;;;;;;7.68;1.60;;;14.60;59.40;;;;;;6206571;28;20033;-79
2021/10/08 06:51:11;;;;;;;2.75;1.40;;;14.70;59.20;;;;;;6225103;28;20073;-79
2021/10/08 06:54:13;;;;;;;6.55;1.73;;;14.80;59.20;;;;;;6211840;28;20038;-79
2021/10/08 06:57:15;;;;;;;4.28;1.85;;;14.90;59.10;;;;;;6202265;28;20049;-79
2021/10/08 07:00:16;;;;;;;5.00;1.75;;;15.00;59.00;;;;;;6185499;28;20471;-78
2021/10/08 07:03:17;;;;;;;4.78;2.28;;;15.00;58.90;;;;;;6192356;28;20037;-79
2021/10/08 07:06:21;;;;;;;10.98;2.90;;;15.10;58.90;;;;;;6209003;28;20034;-78
2021/10/08 07:09:30;;;;;;;10.10;3.40;;;15.10;58.90;;;;;;6222800;28;20371;-78
2021/10/08 07:12:31;;;;;;;6.00;2.65;;;15.10;58.90;;;;;;6207771;28;20053;-79
2021/10/08 07:15:32;;;;;;;7.85;2.72;;;15.10;58.90;;;;;;6207860;28;20124;-79
2021/10/08 07:18:38;;;;;;;6.10;2.70;;;15.10;58.80;;;;;;6222688;28;20034;-78
2021/10/08 07:21:41;;;;;;;9.52;2.92;;;15.10;58.70;;;;;;6207695;28;20038;-79
2021/10/08 07:24:42;;;;;;;5.85;2.60;;;15.10;58.70;;;;;;6208951;28;20031;-79
2021/10/08 07:27:46;;;;;;;9.93;2.67;;;15.10;58.70;;;;;;6200475;28;20057;-79
2021/10/08 07:30:47;;;;;;;6.03;2.92;;;15.20;58.70;;;;;;6199966;28;20030;-79
2021/10/08 07:33:48;;;;;;;5.55;2.85;;;15.20;58.70;;;;;;6203704;28;20121;-79
2021/10/08 07:36:49;;;;;;;7.30;2.25;;;15.30;58.60;;;;;;6194001;28;20086;-78
2021/10/08 07:39:50;;;;;;;5.97;2.38;;;15.40;58.60;;;;;;6199833;28;20057;-79
2021/10/08 07:42:51;;;;;;;10.05;2.63;;;15.50;58.50;;;;;;6222019;28;20459;-79
2021/10/08 07:45:52;;;;;;;3.92;2.33;;;15.50;58.30;;;;;;6216665;28;20033;-78
2021/10/08 07:48:53;;;;;;;6.60;2.67;;;15.60;58.20;;;;;;6223353;28;20026;-79
2021/10/08 07:51:54;;;;;;;5.22;2.10;;;15.70;58.20;;;;;;6222906;28;20034;-81
2021/10/08 07:54:55;;;;;;;5.70;2.15;;;15.70;58.10;;;;;;6213441;28;20087;-80
2021/10/08 07:57:56;;;;;;;4.47;2.38;;;15.70;58.00;;;;;;6206171;28;20049;-79
2021/10/08 08:00:58;;;;;;;4.10;2.40;;;15.70;58.00;;;;;;6222457;28;20087;-79
2021/10/08 08:04:00;;;;;;;6.70;2.05;;;15.80;58.00;;;;;;6205336;28;20407;-79
2021/10/08 08:07:01;;;;;;;5.72;2.28;;;15.80;58.00;;;;;;6199618;28;20394;-80
2021/10/08 08:10:04;;;;;;;5.72;2.13;;;15.90;57.90;;;;;;6184014;28;20037;-80
2021/10/08 08:13:05;;;;;;;8.40;2.47;;;15.90;57.90;;;;;;6205680;28;20038;-80
2021/10/08 08:16:06;;;;;;;8.45;2.20;;;16.00;57.90;;;;;;6209326;28;20034;-78
2021/10/08 08:19:08;;;;;;;8.93;2.42;;;16.10;57.70;;;;;;6201237;28;20034;-79
2021/10/08 08:22:09;;;;;;;7.68;2.70;;;16.10;57.60;;;;;;6214952;28;20038;-79
2021/10/08 08:25:11;;;;;;;3.88;2.30;;;16.20;57.60;;;;;;6199813;28;20109;-78
2021/10/08 08:28:12;;;;;;;8.73;2.47;;;16.20;57.60;;;;;;6198954;28;20038;-79
2021/10/08 08:31:13;;;;;;;4.97;2.40;;;16.30;57.50;;;;;;6181871;28;20559;-78
2021/10/08 08:34:14;;;;;;;4.93;1.75;;;16.30;57.20;;;;;;6199309;28;20129;-80
2021/10/08 08:37:15;;;;;;;4.57;2.17;;;16.40;57.10;;;;;;6206198;28;20038;-80
2021/10/08 08:40:16;;;;;;;4.03;1.90;;;16.40;57.00;;;;;;6223626;28;20084;-79
2021/10/08 08:43:17;;;;;;;7.53;3.67;;;16.50;56.90;;;;;;6211717;28;20034;-80
2021/10/08 08:46:18;;;;;;;10.70;5.75;;;16.70;56.70;;;;;;6228568;28;20030;-79
2021/10/08 08:49:18;;;;;;;6.80;3.13;;;17.00;56.20;;;;;;6198611;28;20035;-78
2021/10/08 08:52:21;;;;;;;5.75;2.60;;;17.20;55.90;;;;;;6215910;28;20534;-79
2021/10/08 08:55:22;;;;;;;5.45;1.80;;;17.40;55.40;;;;;;6210076;28;20362;-78
2021/10/08 08:58:23;;;;;;;26.20;9.32;;;17.60;54.90;;;;;;6217634;28;20038;-80
2021/10/08 09:01:24;;;;;;;14.77;6.13;;;17.70;54.40;;;;;;6222635;28;20476;-80
2021/10/08 09:04:28;;;;;;;21.02;6.60;;;17.80;54.30;;;;;;6200893;28;20169;-79
2021/10/08 09:07:35;;;;;;;9.13;2.15;;;17.90;54.20;;;;;;6211389;28;20026;-78
2021/10/08 09:10:38;;;;;;;5.47;3.17;;;17.90;54.10;;;;;;6205129;28;20057;-80
2021/10/08 09:13:39;;;;;;;9.52;2.88;;;18.00;54.00;;;;;;6222117;28;20065;-79
2021/10/08 09:17:03;;;;;;;8.73;4.00;;;18.00;53.80;;;;;;6222675;28;20037;-79
2021/10/08 09:20:11;;;;;;;4.65;2.10;;;18.10;53.70;;;;;;6205381;28;20491;-79
2021/10/08 09:23:12;;;;;;;5.10;2.60;;;18.10;53.30;;;;;;6207758;28;20057;-79
2021/10/08 09:26:17;;;;;;;4.25;2.80;;;18.20;53.40;;;;;;6185208;28;20337;-79
2021/10/08 09:29:17;;;;;;;4.93;1.88;;;18.20;52.90;;;;;;6205042;28;20057;-79
2021/10/08 09:32:20;;;;;;;3.08;1.42;;;18.20;52.90;;;;;;6207157;28;20042;-79
2021/10/08 09:35:23;;;;;;;4.20;2.10;;;18.20;52.40;;;;;;6228966;28;20060;-79
2021/10/08 09:38:25;;;;;;;4.47;1.63;;;18.20;52.30;;;;;;6226457;28;20085;-79
2021/10/08 09:41:26;;;;;;;3.53;1.60;;;18.10;52.30;;;;;;6222262;28;20062;-78
2021/10/08 09:44:28;;;;;;;3.97;2.20;;;18.10;52.10;;;;;;6209939;28;20038;-79
2021/10/08 09:47:30;;;;;;;3.10;1.88;;;18.00;52.00;;;;;;6196940;28;20121;-79
2021/10/08 09:50:31;;;;;;;2.55;1.70;;;18.00;51.90;;;;;;6205028;28;20034;-80
2021/10/08 09:53:55;;;;;;;10.90;2.95;;;18.00;51.80;;;;;;6221432;28;20110;-80
2021/10/08 09:57:00;;;;;;;3.70;1.88;;;18.10;51.70;;;;;;6141319;28;20051;-80
2021/10/08 10:00:01;;;;;;;2.03;1.55;;;18.20;51.50;;;;;;6153158;28;20051;-79
2021/10/08 10:03:03;;;;;;;3.08;1.90;;;18.30;51.00;;;;;;6135936;28;20394;-80
2021/10/08 10:06:04;;;;;;;13.98;5.35;;;18.40;50.70;;;;;;6152887;28;20115;-80
2021/10/08 10:09:08;;;;;;;8.32;4.50;;;18.40;50.50;;;;;;6142770;28;20079;-80
2021/10/08 10:12:09;;;;;;;3.55;2.10;;;18.50;50.70;;;;;;6136839;28;20105;-80
2021/10/08 10:15:10;;;;;;;3.05;1.95;;;18.70;50.20;;;;;;6159186;28;20038;-79
2021/10/08 10:18:13;;;;;;;8.88;4.25;;;19.00;49.80;;;;;;6150804;28;20045;-80
2021/10/08 10:21:19;;;;;;;2.60;1.70;;;19.50;49.30;;;;;;6160410;28;20041;-79
2021/10/08 10:24:23;;;;;;;4.93;1.90;;;20.00;48.00;;;;;;6136236;28;20440;-80
2021/10/08 10:27:25;;;;;;;2.22;1.45;;;20.40;47.10;;;;;;6158812;28;20488;-80
2021/10/08 10:30:26;;;;;;;4.28;1.58;;;20.80;46.50;;;;;;6147728;28;20043;-80
2021/10/08 10:33:29;;;;;;;19.42;12.13;;;21.20;45.50;;;;;;6160565;28;20135;-80
2021/10/08 10:36:37;;;;;;;1.63;1.40;;;21.30;45.10;;;;;;6189400;28;20121;-80
2021/10/08 10:39:38;;;;;;;5.13;2.30;;;21.40;44.50;;;;;;6194858;28;20468;-79
2021/10/08 10:42:39;;;;;;;1.30;1.20;;;21.80;44.00;;;;;;6185371;28;20036;-80
2021/10/08 10:46:04;;;;;;;2.92;1.35;;;22.00;43.60;;;;;;6184760;28;20038;-80
2021/10/08 10:52:25;;;;;;;3.60;1.77;;;22.30;41.90;;;;;;6183658;28;20073;-80
2021/10/08 10:55:33;;;;;;;3.97;1.48;;;22.40;40.60;;;;;;6176024;28;20031;-80
2021/10/08 10:58:34;;;;;;;2.10;1.15;;;22.40;40.40;;;;;;6165692;28;20486;-80
2021/10/08 11:02:06;;;;;;;5.75;1.63;;;22.50;40.50;;;;;;6187889;28;20034;-80
2021/10/08 11:05:20;;;;;;;3.85;1.60;;;22.60;40.80;;;;;;6180984;28;20043;-80
2021/10/08 11:08:21;;;;;;;1.27;1.15;;;22.60;40.70;;;;;;6170999;28;20337;-80
2021/10/08 11:11:23;;;;;;;1.85;1.20;;;22.70;41.50;;;;;;6156999;28;20043;-80
2021/10/08 11:14:25;;;;;;;8.95;2.95;;;22.60;40.80;;;;;;6175387;28;20056;-80
2021/10/08 11:17:53;;;;;;;9.55;1.60;;;22.50;41.00;;;;;;6165796;28;20118;-80
2021/10/08 11:20:54;;;;;;;7.22;2.50;;;22.30;41.20;;;;;;6178909;28;20384;-80
2021/10/08 11:24:00;;;;;;;3.92;2.35;;;22.20;41.30;;;;;;6155684;28;20066;-80
2021/10/08 11:27:05;;;;;;;3.00;1.90;;;22.10;41.40;;;;;;6173686;28;20042;-80
2021/10/08 11:30:08;;;;;;;1.63;1.33;;;22.00;41.70;;;;;;6202641;28;20037;-81
2021/10/08 11:33:09;;;;;;;4.80;1.77;;;21.90;42.00;;;;;;6208198;28;20053;-80
2021/10/08 11:36:29;;;;;;;6.15;1.60;;;21.80;42.10;;;;;;6195416;28;20054;-80
2021/10/08 11:39:31;;;;;;;2.80;1.65;;;21.80;42.70;;;;;;6204701;28;20034;-79
2021/10/08 11:42:41;;;;;;;2.67;1.30;;;22.20;42.70;;;;;;6204456;28;20594;-79
2021/10/08 11:48:52;;;;;;;1.70;1.38;;;23.00;41.10;;;;;;6197331;28;20038;-80
2021/10/08 11:51:58;;;;;;;2.30;1.40;;;23.10;40.90;;;;;;6197757;28;20444;-80
2021/10/08 11:55:13;;;;;;;2.53;1.48;;;23.10;40.90;;;;;;6179286;28;20038;-79
2021/10/08 11:58:16;;;;;;;4.10;1.38;;;23.20;40.90;;;;;;6180911;28;20125;-79
2021/10/08 12:01:22;;;;;;;2.15;1.10;;;23.10;40.70;;;;;;6196968;28;20053;-80
2021/10/08 12:04:23;;;;;;;3.45;1.38;;;23.00;40.90;;;;;;6186209;28;20073;-80
2021/10/08 12:07:24;;;;;;;2.40;1.52;;;23.00;41.10;;;;;;6197281;28;20455;-80
2021/10/08 12:10:25;;;;;;;2.28;1.50;;;22.90;41.20;;;;;;6187725;28;20042;-81
2021/10/08 12:13:37;;;;;;;3.80;1.63;;;22.70;41.30;;;;;;6204574;28;20034;-80
2021/10/08 12:16:44;;;;;;;7.22;1.63;;;22.60;41.60;;;;;;6195448;28;20029;-80
2021/10/08 12:19:45;;;;;;;4.53;1.30;;;22.60;41.70;;;;;;6187591;28;20095;-80
2021/10/08 12:22:48;;;;;;;5.13;2.05;;;22.50;41.70;;;;;;6198071;28;20108;-80
2021/10/08 12:25:54;;;;;;;1.38;1.20;;;22.40;41.90;;;;;;6196653;28;20592;-80
2021/10/08 12:28:55;;;;;;;5.97;2.38;;;22.30;42.10;;;;;;6186630;28;20419;-81
2021/10/08 12:32:04;;;;;;;1.55;1.20;;;22.20;42.20;;;;;;6202607;28;20387;-80
2021/10/08 12:35:13;;;;;;;2.30;1.42;;;22.10;42.30;;;;;;6179975;28;20118;-80
2021/10/08 12:38:14;;;;;;;2.45;1.30;;;22.10;42.40;;;;;;6193550;28;20034;-80
2021/10/08 12:41:37;;;;;;;5.70;1.40;;;21.90;42.40;;;;;;6203885;28;20045;-80
2021/10/08 12:44:47;;;;;;;4.13;1.70;;;22.00;42.30;;;;;;6215810;28;20030;-80
2021/10/08 12:47:50;;;;;;;3.05;1.40;;;21.80;42.40;;;;;;6196676;28;20173;-80
2021/10/08 12:51:00;;;;;;;2.85;1.50;;;21.70;42.60;;;;;;6179626;28;20415;-80
2021/10/08 12:54:12;;;;;;;2.63;1.65;;;21.60;42.90;;;;;;6176321;28;20099;-81
2021/10/08 12:57:20;;;;;;;2.38;1.35;;;21.50;43.00;;;;;;6180361;28;20428;-81
2021/10/08 13:00:36;;;;;;;2.67;1.50;;;21.40;43.20;;;;;;6185929;28;20049;-81
2021/10/08 13:03:39;;;;;;;2.47;1.20;;;21.20;43.30;;;;;;6214840;28;20034;-80
2021/10/08 13:06:40;;;;;;;2.42;1.40;;;21.20;43.50;;;;;;6215094;28;20038;-80
2021/10/08 13:10:07;;;;;;;2.83;1.10;;;21.10;43.60;;;;;;6198169;28;20045;-80
2021/10/08 13:13:08;;;;;;;6.45;1.20;;;21.10;43.70;;;;;;6197473;28;20379;-81
2021/10/08 13:16:12;;;;;;;2.75;1.20;;;21.10;43.60;;;;;;6203473;28;20038;-80
2021/10/08 13:19:35;;;;;;;3.38;1.13;;;21.00;43.70;;;;;;6204693;28;20030;-79
2021/10/08 13:22:40;;;;;;;1.17;1.00;;;21.00;43.70;;;;;;6210331;28;20030;-80
2021/10/08 13:25:45;;;;;;;2.25;1.13;;;21.00;43.70;;;;;;6198998;28;20041;-80
2021/10/08 13:28:46;;;;;;;2.25;1.00;;;21.10;43.60;;;;;;6221482;28;20125;-79
2021/10/08 13:31:47;;;;;;;6.80;1.13;;;21.20;43.50;;;;;;6205001;28;20038;-80
2021/10/08 13:34:48;;;;;;;2.00;1.35;;;21.30;43.40;;;;;;6216805;28;20034;-80
2021/10/08 13:37:49;;;;;;;2.50;1.30;;;21.40;43.30;;;;;;6210662;28;20049;-80
2021/10/08 13:40:52;;;;;;;2.08;1.08;;;21.40;43.20;;;;;;6227283;28;20038;-80
2021/10/08 13:43:54;;;;;;;1.60;1.42;;;21.40;43.10;;;;;;6227628;28;20048;-80
2021/10/08 13:46:55;;;;;;;3.97;1.73;;;21.40;43.10;;;;;;6211288;28;20100;-80
2021/10/08 13:49:56;;;;;;;2.63;1.38;;;21.40;43.20;;;;;;6210472;28;20077;-80
2021/10/08 13:52:56;;;;;;;2.33;1.30;;;21.30;43.30;;;;;;6196214;28;20045;-79
2021/10/08 13:55:57;;;;;;;1.65;1.02;;;21.20;43.40;;;;;;6213755;28;20058;-80
2021/10/08 13:58:58;;;;;;;3.33;1.30;;;21.10;43.60;;;;;;6206245;28;20114;-80
2021/10/08 14:02:15;;;;;;;2.65;1.50;;;21.00;43.80;;;;;;6230454;28;20109;-80
2021/10/08 14:05:34;;;;;;;4.05;1.60;;;20.90;43.90;;;;;;6232704;28;20036;-81
2021/10/08 14:12:02;;;;;;;2.83;1.45;;;20.80;44.10;;;;;;6180187;28;20041;-80
2021/10/08 14:15:04;;;;;;;1.23;1.10;;;20.80;44.30;;;;;;6212646;28;20042;-80
2021/10/08 14:18:05;;;;;;;2.47;1.20;;;20.80;44.40;;;;;;6204249;28;20054;-80
2021/10/08 14:21:06;;;;;;;1.20;1.10;;;20.70;44.50;;;;;;6181683;28;20042;-81
2021/10/08 14:24:07;;;;;;;3.55;1.50;;;20.60;44.60;;;;;;6186578;28;20046;-80
2021/10/08 14:27:08;;;;;;;1.63;1.48;;;20.60;44.70;;;;;;6199025;28;20440;-80
2021/10/08 14:30:13;;;;;;;2.90;1.45;;;20.60;44.90;;;;;;6203461;28;20049;-80
2021/10/08 14:33:14;;;;;;;1.98;1.20;;;20.50;45.00;;;;;;6187283;28;20129;-80
2021/10/08 14:36:15;;;;;;;2.60;1.20;;;20.40;45.10;;;;;;6199542;28;20057;-81
2021/10/08 14:39:16;;;;;;;5.15;1.27;;;20.40;45.10;;;;;;6193003;28;20057;-81
2021/10/08 14:42:18;;;;;;;5.25;1.58;;;20.40;45.10;;;;;;6218407;28;20062;-79
2021/10/08 14:45:20;;;;;;;2.58;1.40;;;20.40;45.20;;;;;;6205178;28;20038;-80
2021/10/08 14:48:22;;;;;;;1.50;1.20;;;20.30;45.30;;;;;;6196182;28;20026;-79
2021/10/08 14:51:29;;;;;;;2.30;1.48;;;20.30;45.40;;;;;;6206131;28;20073;-81
2021/10/08 14:54:56;;;;;;;2.70;1.23;;;20.30;45.50;;;;;;6204070;28;20101;-81
2021/10/08 14:57:58;;;;;;;2.90;1.10;;;20.30;45.50;;;;;;6212080;28;20530;-81
2021/10/08 15:00:59;;;;;;;3.20;1.23;;;20.30;45.50;;;;;;6176769;28;20140;-81
2021/10/08 15:04:02;;;;;;;2.58;1.50;;;20.30;45.70;;;;;;6208672;28;20436;-80
2021/10/08 15:07:05;;;;;;;1.30;1.20;;;20.30;45.80;;;;;;6222645;28;20030;-79
2021/10/08 15:10:07;;;;;;;2.75;1.67;;;20.30;45.90;;;;;;6206696;28;20037;-81
2021/10/08 15:13:10;;;;;;;5.95;1.42;;;20.20;45.90;;;;;;6212916;28;20026;-80
2021/10/08 15:16:12;;;;;;;2.25;1.60;;;20.20;45.90;;;;;;6200298;28;20105;-80
2021/10/08 15:19:14;;;;;;;1.92;1.50;;;20.20;46.00;;;;;;6216107;28;20030;-80
2021/10/08 15:22:14;;;;;;;2.83;1.75;;;20.20;46.00;;;;;;6207793;28;20375;-80
2021/10/08 15:25:16;;;;;;;3.83;1.77;;;20.30;46.10;;;;;;6194487;28;20034;-80
2021/10/08 15:28:16;;;;;;;4.38;1.70;;;20.20;46.10;;;;;;6164995;28;20150;-80
2021/10/08 15:31:17;;;;;;;3.65;1.60;;;20.20;46.10;;;;;;6150917;28;20555;-80
2021/10/08 15:34:18;;;;;;;3.65;1.70;;;20.20;46.20;;;;;;6179331;28;20098;-80
2021/10/08 15:37:19;;;;;;;3.15;1.70;;;20.20;46.40;;;;;;6179182;28;20031;-80
2021/10/08 15:40:22;;;;;;;1.25;1.10;;;20.10;46.40;;;;;;6197925;28;20474;-80
2021/10/08 15:43:22;;;;;;;3.00;1.40;;;20.10;46.50;;;;;;6195444;28;21060;-80
2021/10/08 15:46:23;;;;;;;3.83;2.00;;;20.00;46.60;;;;;;6187411;28;20060;-79
2021/10/08 15:49:24;;;;;;;2.38;1.40;;;20.00;46.70;;;;;;6178738;28;20061;-79
2021/10/08 15:52:26;;;;;;;6.20;1.83;;;20.00;46.70;;;;;;6177937;28;20060;-79
2021/10/08 15:55:27;;;;;;;4.18;1.55;;;20.00;46.80;;;;;;6143628;28;20488;-79
2021/10/08 15:58:28;;;;;;;3.88;1.77;;;20.00;46.80;;;;;;6218974;28;20045;-79
2021/10/08 16:01:29;;;;;;;2.63;1.73;;;20.00;46.90;;;;;;6205280;28;20057;-80